createdAt,value
2023-04-18T00:00:45.196Z,23.48
2023-04-18T00:04:45.580Z,23.46
2023-04-18T00:08:45.441Z,23.45
2023-04-18T00:12:45.591Z,23.44
2023-04-18T00:16:45.762Z,23.44
2023-04-18T00:20:45.849Z,23.42
2023-04-18T00:24:45.972Z,23.41
2023-04-18T00:28:46.064Z,23.41
2023-04-18T00:32:46.335Z,23.40
2023-04-18T00:36:46.408Z,23.41
2023-04-18T00:40:46.523Z,23.40
2023-04-18T00:44:46.679Z,23.38
2023-04-18T00:48:46.818Z,23.40
2023-04-18T00:52:46.984Z,23.37
2023-04-18T00:56:47.131Z,23.37
2023-04-18T01:00:47.362Z,23.34
2023-04-18T01:04:47.474Z,23.37
2023-04-18T01:08:47.658Z,23.31
2023-04-18T01:12:47.810Z,23.34
2023-04-18T01:16:48.052Z,23.31
2023-04-18T01:20:48.178Z,23.32
2023-04-18T01:24:48.377Z,23.31
2023-04-18T01:28:48.576Z,23.28
2023-04-18T01:32:48.807Z,23.28
2023-04-18T01:36:48.962Z,23.28
2023-04-18T01:40:49.166Z,23.26
2023-04-18T01:44:49.361Z,23.26
2023-04-18T01:48:49.744Z,23.26
2023-04-18T01:52:49.761Z,23.25
2023-04-18T01:56:50.001Z,23.24
2023-04-18T02:00:50.205Z,23.22
2023-04-18T02:04:50.425Z,23.19
2023-04-18T02:12:50.832Z,23.22
2023-04-18T02:16:51.099Z,23.19
2023-04-18T02:20:51.193Z,23.18
2023-04-18T02:24:51.430Z,23.18
2023-04-18T02:28:51.626Z,23.19
2023-04-18T02:32:51.948Z,23.15
2023-04-18T02:36:52.072Z,23.18
2023-04-18T02:40:52.043Z,23.18
2023-04-18T02:44:51.974Z,23.15
2023-04-18T02:48:52.008Z,23.14
2023-04-18T02:52:51.928Z,23.14
2023-04-18T02:56:51.913Z,23.11
2023-04-18T03:00:51.858Z,23.14
2023-04-18T03:04:51.860Z,23.10
2023-04-18T03:08:51.806Z,23.13
2023-04-18T03:12:51.739Z,23.10
2023-04-18T03:16:53.083Z,23.11
2023-04-18T03:20:51.799Z,23.10
2023-04-18T03:24:51.740Z,23.10
2023-04-18T03:28:51.723Z,23.08
2023-04-18T03:32:51.711Z,23.07
2023-04-18T03:36:51.649Z,23.07
2023-04-18T03:40:51.608Z,23.04
2023-04-18T03:44:51.558Z,23.05
2023-04-18T03:48:51.589Z,23.04
2023-04-18T03:52:51.790Z,23.04
2023-04-18T03:56:51.947Z,23.04
2023-04-18T04:00:52.101Z,23.04
2023-04-18T04:04:52.319Z,23.01
2023-04-18T04:08:52.474Z,23.03
2023-04-18T04:12:52.636Z,23.00
2023-04-18T04:16:52.938Z,23.01
2023-04-18T04:20:52.927Z,23.00
2023-04-18T04:24:53.110Z,22.98
2023-04-18T04:28:53.279Z,22.97
2023-04-18T04:32:53.469Z,22.96
2023-04-18T04:36:53.593Z,22.98
2023-04-18T04:40:53.735Z,22.98
2023-04-18T04:44:53.891Z,22.96
2023-04-18T04:48:53.978Z,22.97
2023-04-18T04:52:54.039Z,22.93
2023-04-18T04:56:54.099Z,22.96
2023-04-18T05:00:54.209Z,22.94
2023-04-18T05:04:54.192Z,22.93
2023-04-18T05:08:54.210Z,22.97
2023-04-18T05:12:54.399Z,23.01
2023-04-18T05:16:54.513Z,23.15
2023-04-18T05:20:54.305Z,23.32
2023-04-18T05:24:54.309Z,23.42
2023-04-18T05:28:54.256Z,23.55
2023-04-18T05:32:54.217Z,23.65
2023-04-18T05:36:54.172Z,23.72
2023-04-18T05:40:54.152Z,23.80
2023-04-18T05:44:54.110Z,23.86
2023-04-18T05:48:54.082Z,23.90
2023-04-18T05:52:54.756Z,23.96
2023-04-18T05:56:54.026Z,24.00
2023-04-18T06:00:53.980Z,24.06
2023-04-18T06:04:54.242Z,24.10
2023-04-18T06:08:53.925Z,24.11
2023-04-18T06:12:53.859Z,24.18
2023-04-18T06:16:53.977Z,24.18
2023-04-18T06:20:54.346Z,24.23
2023-04-18T06:24:54.391Z,24.24
2023-04-18T06:28:54.642Z,24.27
2023-04-18T06:32:54.850Z,24.31
2023-04-18T06:36:54.982Z,24.35
2023-04-18T06:40:55.172Z,24.35
2023-04-18T06:44:55.316Z,24.41
2023-04-18T06:48:55.470Z,24.42
2023-04-18T06:52:55.651Z,24.47
2023-04-18T06:56:55.719Z,24.50
2023-04-18T07:00:55.916Z,24.50
2023-04-18T07:04:55.952Z,24.54
2023-04-18T07:08:56.113Z,24.58
2023-04-18T07:12:56.250Z,24.61
2023-04-18T07:16:56.347Z,24.66
2023-04-18T07:20:56.451Z,24.66
2023-04-18T07:24:56.700Z,24.71
2023-04-18T07:28:56.702Z,24.72
2023-04-18T07:32:56.859Z,24.75
2023-04-18T07:36:56.944Z,24.78
2023-04-18T07:40:57.071Z,24.82
2023-04-18T07:44:57.162Z,24.85
2023-04-18T07:48:57.271Z,24.89
2023-04-18T07:52:57.427Z,24.97
2023-04-18T07:56:57.437Z,25.23
2023-04-18T08:00:57.606Z,25.55
2023-04-18T08:04:58.016Z,25.64
2023-04-18T08:08:57.909Z,25.81
2023-04-18T08:12:57.946Z,25.99
2023-04-18T08:16:57.928Z,26.09
2023-04-18T08:20:58.033Z,26.27
2023-04-18T08:25:04.481Z,26.63
2023-04-18T08:28:59.208Z,26.87
2023-04-18T08:32:58.189Z,26.95
2023-04-18T08:36:58.149Z,26.94
2023-04-18T08:40:58.094Z,26.95
2023-04-18T08:44:58.374Z,27.05
2023-04-18T08:48:58.128Z,26.99
2023-04-18T08:52:58.186Z,26.90
2023-04-18T08:56:58.268Z,26.92
2023-04-18T09:00:58.498Z,26.61
2023-04-18T09:04:58.460Z,26.13
2023-04-18T09:08:58.448Z,25.85
2023-04-18T09:12:58.458Z,25.79
2023-04-18T09:16:58.886Z,25.75
2023-04-18T09:20:58.469Z,25.70
2023-04-18T09:24:58.521Z,25.65
2023-04-18T09:28:58.434Z,25.60
2023-04-18T09:32:59.368Z,25.60
2023-04-18T09:36:58.520Z,25.65
2023-04-18T09:40:58.455Z,25.64
2023-04-18T09:44:58.466Z,25.47
2023-04-18T09:48:58.469Z,25.51
2023-04-18T09:52:58.547Z,25.48
2023-04-18T09:56:58.523Z,25.44
2023-04-18T10:00:58.619Z,25.31
2023-04-18T10:04:58.916Z,24.99
2023-04-18T10:08:58.923Z,25.12
2023-04-18T10:12:58.931Z,25.33
2023-04-18T10:16:59.058Z,25.48
2023-04-18T10:20:59.005Z,25.58
2023-04-18T10:24:59.006Z,25.68
2023-04-18T10:28:58.976Z,25.70
2023-04-18T10:32:58.934Z,25.81
2023-04-18T10:36:58.889Z,25.89
2023-04-18T10:40:58.833Z,25.93
2023-04-18T10:44:58.985Z,25.98
2023-04-18T10:48:58.800Z,25.84
2023-04-18T10:52:58.909Z,25.87
2023-04-18T10:56:58.713Z,25.91
2023-04-18T11:00:58.680Z,25.95
2023-04-18T11:04:58.637Z,25.92
2023-04-18T11:08:58.595Z,25.93
2023-04-18T11:12:58.564Z,25.95
2023-04-18T11:16:58.666Z,25.99
2023-04-18T11:20:58.492Z,26.05
2023-04-18T11:24:58.466Z,26.06
2023-04-18T11:28:58.434Z,26.06
2023-04-18T11:32:58.488Z,26.06
2023-04-18T11:36:58.629Z,26.10
2023-04-18T11:40:58.840Z,26.12
2023-04-18T11:44:58.822Z,25.74
2023-04-18T11:48:58.909Z,25.41
2023-04-18T11:52:58.926Z,25.27
2023-04-18T11:56:58.919Z,25.24
2023-04-18T12:00:58.924Z,25.19
2023-04-18T12:04:59.317Z,25.22
2023-04-18T12:08:58.937Z,25.10
2023-04-18T12:12:59.054Z,25.03
2023-04-18T12:16:59.005Z,24.99
2023-04-18T12:20:59.019Z,24.96
2023-04-18T12:25:06.398Z,24.90
2023-04-18T12:28:59.008Z,24.83
2023-04-18T12:32:59.021Z,24.69
2023-04-18T12:36:58.972Z,24.57
2023-04-18T12:40:58.915Z,24.52
2023-04-18T12:44:58.912Z,24.42
2023-04-18T12:48:58.836Z,24.34
2023-04-18T12:52:59.068Z,24.37
2023-04-18T12:56:59.285Z,24.28
2023-04-18T13:01:06.319Z,24.18
2023-04-18T13:04:59.238Z,24.21
2023-04-18T13:08:59.154Z,24.20
2023-04-18T13:12:59.190Z,24.14
2023-04-18T13:16:59.093Z,24.16
2023-04-18T13:20:59.096Z,24.16
2023-04-18T13:24:59.139Z,24.13
2023-04-18T13:28:59.101Z,24.10
2023-04-18T13:32:59.135Z,24.03
2023-04-18T13:36:59.194Z,23.99
2023-04-18T13:41:11.454Z,23.97
2023-04-18T13:46:18.832Z,23.86
2023-04-18T13:47:18.766Z,23.97
2023-04-18T13:48:18.702Z,24.07
2023-04-18T13:49:18.705Z,24.16
2023-04-18T13:50:18.667Z,24.17
2023-04-18T13:51:18.760Z,24.18
2023-04-18T13:52:18.696Z,24.24
2023-04-18T13:53:18.662Z,24.24
2023-04-18T13:54:18.686Z,24.24
2023-04-18T13:55:18.684Z,24.27
2023-04-18T13:56:18.628Z,24.27
2023-04-18T13:57:18.669Z,24.28
2023-04-18T13:58:18.641Z,24.30
2023-04-18T13:59:18.635Z,24.30
2023-04-18T14:00:18.653Z,24.34
2023-04-18T14:01:18.631Z,24.30
2023-04-18T14:02:18.686Z,24.30
2023-04-18T14:03:18.776Z,24.30
2023-04-18T14:04:18.771Z,24.30
2023-04-18T14:05:18.572Z,24.31
2023-04-18T14:06:18.578Z,24.34
2023-04-18T14:07:18.588Z,24.31
2023-04-18T14:08:18.617Z,24.32
2023-04-18T14:09:18.577Z,24.34
2023-04-18T14:10:18.576Z,24.38
2023-04-18T14:11:18.538Z,24.38
2023-04-18T14:12:18.558Z,24.38
2023-04-18T14:13:18.527Z,24.39
2023-04-18T14:14:18.529Z,24.39
2023-04-18T14:15:18.508Z,24.41
2023-04-18T14:16:18.527Z,24.41
2023-04-18T14:17:18.488Z,24.42
2023-04-18T14:18:18.536Z,24.37
2023-04-18T14:19:18.474Z,24.35
2023-04-18T14:20:18.499Z,24.31
2023-04-18T14:21:18.470Z,24.25
2023-04-18T14:22:18.455Z,24.24
2023-04-18T14:23:18.466Z,24.25
2023-04-18T14:24:18.471Z,24.18
2023-04-18T14:25:18.433Z,24.14
2023-04-18T14:26:18.418Z,24.13
2023-04-18T14:27:18.449Z,24.07
2023-04-18T14:28:18.416Z,24.04
2023-04-18T14:29:18.437Z,24.03
2023-04-18T14:30:18.401Z,24.01
2023-04-18T14:31:18.456Z,24.06
2023-04-18T14:32:18.417Z,24.03
2023-04-18T14:33:18.405Z,23.96
2023-04-18T14:34:18.409Z,23.91
2023-04-18T14:35:18.385Z,23.89
2023-04-18T14:36:18.462Z,23.87
2023-04-18T14:37:18.402Z,23.86
2023-04-18T14:38:18.402Z,23.86
2023-04-18T14:39:18.438Z,23.87
2023-04-18T14:40:18.501Z,23.83
2023-04-18T14:41:19.401Z,23.82
2023-04-18T14:42:18.643Z,23.84
2023-04-18T14:43:18.654Z,23.79
2023-04-18T14:44:18.727Z,23.80
2023-04-18T14:45:18.811Z,23.73
2023-04-18T14:46:18.927Z,23.72
2023-04-18T14:47:18.897Z,23.69
2023-04-18T14:48:19.006Z,23.65
2023-04-18T14:49:18.977Z,23.69
2023-04-18T14:50:19.053Z,23.68
2023-04-18T14:51:19.105Z,23.69
2023-04-18T14:52:19.174Z,23.76
2023-04-18T14:53:19.204Z,23.82
2023-04-18T14:54:26.257Z,23.86
2023-04-18T14:55:19.209Z,23.89
2023-04-18T14:56:19.234Z,23.91
2023-04-18T14:57:19.212Z,23.93
2023-04-18T14:58:19.216Z,23.99
2023-04-18T14:59:19.406Z,24.01
2023-04-18T15:00:19.234Z,24.06
2023-04-18T15:01:19.214Z,24.06
2023-04-18T15:02:19.217Z,24.06
2023-04-18T15:03:19.365Z,24.07
2023-04-18T15:04:26.506Z,24.10
2023-04-18T15:05:19.155Z,24.10
2023-04-18T15:06:19.140Z,24.14
2023-04-18T15:07:19.156Z,24.16
2023-04-18T15:08:19.176Z,24.17
2023-04-18T15:09:19.113Z,24.16
2023-04-18T15:10:19.147Z,24.20
2023-04-18T15:11:19.137Z,24.27
2023-04-18T15:12:19.122Z,24.34
2023-04-18T15:13:19.122Z,24.39
2023-04-18T15:14:19.135Z,24.42
2023-04-18T15:15:26.150Z,24.50
2023-04-18T15:16:19.131Z,24.54
2023-04-18T15:17:19.074Z,24.57
2023-04-18T15:18:19.086Z,24.59
2023-04-18T15:19:19.086Z,24.64
2023-04-18T15:20:19.056Z,24.65
2023-04-18T15:21:19.049Z,24.71
2023-04-18T15:22:19.039Z,24.74
2023-04-18T15:23:19.034Z,24.75
2023-04-18T15:24:19.051Z,24.81
2023-04-18T15:25:19.036Z,24.81
2023-04-18T15:26:19.077Z,24.83
2023-04-18T15:27:19.004Z,24.86
2023-04-18T15:28:19.012Z,24.92
2023-04-18T15:29:19.034Z,24.92
2023-04-18T15:30:19.037Z,24.95
2023-04-18T15:31:19.084Z,24.99
2023-04-18T15:32:19.044Z,24.97
2023-04-18T15:33:19.019Z,25.00
2023-04-18T15:34:19.003Z,25.02
2023-04-18T15:35:18.979Z,25.07
2023-04-18T15:36:18.969Z,25.06
2023-04-18T15:37:18.982Z,25.12
2023-04-18T15:38:18.967Z,25.12
2023-04-18T15:39:18.931Z,25.13
2023-04-18T15:40:18.959Z,25.17
2023-04-18T15:41:18.944Z,25.17
2023-04-18T15:42:18.960Z,25.19
2023-04-18T15:43:18.927Z,25.20
2023-04-18T15:44:18.926Z,25.20
2023-04-18T15:45:18.881Z,25.20
2023-04-18T15:46:18.920Z,25.24
2023-04-18T15:47:18.897Z,25.26
2023-04-18T15:48:18.897Z,25.27
2023-04-18T15:49:18.880Z,25.27
2023-04-18T15:50:18.893Z,25.27
2023-04-18T15:51:18.879Z,25.29
2023-04-18T15:52:18.848Z,25.30
2023-04-18T15:53:18.889Z,25.27
2023-04-18T15:54:18.862Z,25.29
2023-04-18T15:55:18.845Z,25.33
2023-04-18T15:56:18.838Z,25.34
2023-04-18T15:57:18.849Z,25.34
2023-04-18T15:58:18.811Z,25.36
2023-04-18T15:59:18.813Z,25.38
2023-04-18T16:00:18.818Z,25.37
2023-04-18T16:01:18.826Z,25.36
2023-04-18T16:02:18.870Z,25.37
2023-04-18T16:03:18.891Z,25.38
2023-04-18T16:04:18.846Z,25.38
2023-04-18T16:05:18.812Z,25.37
2023-04-18T16:06:18.827Z,25.37
2023-04-18T16:07:18.887Z,25.37
2023-04-18T16:08:18.915Z,25.41
2023-04-18T16:09:18.931Z,25.41
2023-04-18T16:10:18.937Z,25.40
2023-04-18T16:11:18.981Z,25.40
2023-04-18T16:12:19.105Z,25.40
2023-04-18T16:13:19.059Z,25.42
2023-04-18T16:14:19.096Z,25.41
2023-04-18T16:15:19.099Z,25.41
2023-04-18T16:16:19.230Z,25.41
2023-04-18T16:17:19.138Z,25.42
2023-04-18T16:18:19.258Z,25.40
2023-04-18T16:19:19.497Z,25.42
2023-04-18T16:20:19.223Z,25.40
2023-04-18T16:21:19.242Z,25.42
2023-04-18T16:22:19.281Z,25.44
2023-04-18T16:23:19.299Z,25.40
2023-04-18T16:24:19.322Z,25.41
2023-04-18T16:25:19.335Z,25.37
2023-04-18T16:26:19.365Z,25.40
2023-04-18T16:27:19.434Z,25.38
2023-04-18T16:28:19.460Z,25.40
2023-04-18T16:29:19.469Z,25.40
2023-04-18T16:30:19.460Z,25.37
2023-04-18T16:31:19.611Z,25.38
2023-04-18T16:32:19.558Z,25.40
2023-04-18T16:33:19.655Z,25.38
2023-04-18T16:34:19.586Z,25.40
2023-04-18T16:35:19.644Z,25.38
2023-04-18T16:36:19.634Z,25.41
2023-04-18T16:37:19.674Z,25.38
2023-04-18T16:38:19.704Z,25.37
2023-04-18T16:39:19.733Z,25.38
2023-04-18T16:40:19.748Z,25.40
2023-04-18T16:41:19.786Z,25.40
2023-04-18T16:42:19.815Z,25.37
2023-04-18T16:43:19.842Z,25.38
2023-04-18T16:44:19.845Z,25.37
2023-04-18T16:45:19.898Z,25.37
2023-04-18T16:46:19.994Z,25.37
2023-04-18T16:47:19.973Z,25.34
2023-04-18T16:48:19.985Z,25.34
2023-04-18T16:49:20.036Z,25.34
2023-04-18T16:50:20.049Z,25.33
2023-04-18T16:51:20.090Z,25.34
2023-04-18T16:52:20.106Z,25.36
2023-04-18T16:53:20.143Z,25.34
2023-04-18T16:54:20.197Z,25.31
2023-04-18T16:55:20.212Z,25.33
2023-04-18T16:56:20.243Z,25.29
2023-04-18T16:57:20.290Z,25.27
2023-04-18T16:58:20.309Z,25.27
2023-04-18T16:59:20.317Z,25.29
2023-04-18T17:00:20.424Z,25.29
2023-04-18T17:01:20.400Z,25.29
2023-04-18T17:02:20.570Z,25.27
2023-04-18T17:03:20.615Z,25.26
2023-04-18T17:04:20.580Z,25.23
2023-04-18T17:05:20.541Z,25.22
2023-04-18T17:06:20.585Z,25.22
2023-04-18T17:07:20.626Z,25.17
2023-04-18T17:08:20.668Z,25.17
2023-04-18T17:09:20.714Z,25.19
2023-04-18T17:10:20.771Z,25.17
2023-04-18T17:11:20.811Z,25.14
2023-04-18T17:12:20.876Z,25.14
2023-04-18T17:13:20.899Z,25.10
2023-04-18T17:14:20.980Z,25.09
2023-04-18T17:15:20.983Z,25.09
2023-04-18T17:16:21.124Z,25.07
2023-04-18T17:17:21.129Z,25.05
2023-04-18T17:18:21.187Z,25.05
2023-04-18T17:19:21.251Z,25.03
2023-04-18T17:20:21.277Z,25.03
2023-04-18T17:21:21.340Z,25.02
2023-04-18T17:22:21.379Z,25.03
2023-04-18T17:23:21.460Z,25.02
2023-04-18T17:24:21.516Z,25.00
2023-04-18T17:25:21.593Z,24.97
2023-04-18T17:26:21.624Z,24.99
2023-04-18T17:27:21.710Z,24.96
2023-04-18T17:28:21.772Z,24.97
2023-04-18T17:29:22.354Z,24.95
2023-04-18T17:30:21.908Z,24.93
2023-04-18T17:31:22.004Z,24.93
2023-04-18T17:32:22.062Z,24.92
2023-04-18T17:33:22.067Z,24.90
2023-04-18T17:34:22.151Z,24.90
2023-04-18T17:35:22.188Z,24.90
2023-04-18T17:36:22.304Z,24.87
2023-04-18T17:37:22.394Z,24.86
2023-04-18T17:38:22.376Z,24.87
2023-04-18T17:39:22.484Z,24.85
2023-04-18T17:40:22.514Z,24.85
2023-04-18T17:41:22.599Z,24.86
2023-04-18T17:42:22.588Z,24.83
2023-04-18T17:43:22.653Z,24.82
2023-04-18T17:44:22.686Z,24.83
2023-04-18T17:45:22.761Z,24.81
2023-04-18T17:46:22.806Z,24.79
2023-04-18T17:47:22.903Z,24.81
2023-04-18T17:48:22.891Z,24.78
2023-04-18T17:49:22.924Z,24.78
2023-04-18T17:50:22.917Z,24.74
2023-04-18T17:51:22.919Z,24.75
2023-04-18T17:52:22.976Z,24.72
2023-04-18T17:53:23.030Z,24.75
2023-04-18T17:54:23.036Z,24.74
2023-04-18T17:55:23.027Z,24.71
2023-04-18T17:56:23.062Z,24.69
2023-04-18T17:57:23.064Z,24.68
2023-04-18T17:58:23.054Z,24.68
2023-04-18T17:59:23.029Z,24.68
2023-04-18T18:00:23.090Z,24.68
2023-04-18T18:01:23.121Z,24.66
2023-04-18T18:02:23.167Z,24.66
2023-04-18T18:03:23.302Z,24.65
2023-04-18T18:04:25.780Z,24.64
2023-04-18T18:05:23.051Z,24.64
2023-04-18T18:06:23.073Z,24.62
2023-04-18T18:07:23.061Z,24.62
2023-04-18T18:08:23.042Z,24.61
2023-04-18T18:09:23.039Z,24.62
2023-04-18T18:10:23.017Z,24.62
2023-04-18T18:11:23.016Z,24.61
2023-04-18T18:12:23.031Z,24.59
2023-04-18T18:13:23.033Z,24.59
2023-04-18T18:14:23.021Z,24.55
2023-04-18T18:15:23.000Z,24.57
2023-04-18T18:16:23.027Z,24.57
2023-04-18T18:17:23.006Z,24.58
2023-04-18T18:18:22.999Z,24.57
2023-04-18T18:19:22.996Z,24.55
2023-04-18T18:20:23.042Z,24.54
2023-04-18T18:21:22.959Z,24.55
2023-04-18T18:22:22.950Z,24.54
2023-04-18T18:23:22.961Z,24.54
2023-04-18T18:24:22.933Z,24.51
2023-04-18T18:25:22.959Z,24.54
2023-04-18T18:26:22.914Z,24.55
2023-04-18T18:27:22.925Z,24.51
2023-04-18T18:28:22.940Z,24.48
2023-04-18T18:29:22.915Z,24.51
2023-04-18T18:30:22.923Z,24.52
2023-04-18T18:31:22.922Z,24.52
2023-04-18T18:32:22.933Z,24.55
2023-04-18T18:33:22.902Z,24.54
2023-04-18T18:34:22.865Z,24.55
2023-04-18T18:35:22.896Z,24.55
2023-04-18T18:36:22.901Z,24.57
2023-04-18T18:37:22.843Z,24.59
2023-04-18T18:38:22.859Z,24.64
2023-04-18T18:39:22.857Z,24.62
2023-04-18T18:40:22.842Z,24.66
2023-04-18T18:41:22.879Z,24.71
2023-04-18T18:42:22.823Z,24.72
2023-04-18T18:43:22.844Z,24.74
2023-04-18T18:44:22.947Z,24.74
2023-04-18T18:45:22.778Z,24.78
2023-04-18T18:46:22.875Z,24.74
2023-04-18T18:47:22.791Z,24.76
2023-04-18T18:48:22.788Z,24.81
2023-04-18T18:49:22.771Z,24.79
2023-04-18T18:50:22.773Z,24.83
2023-04-18T18:51:22.751Z,24.76
2023-04-18T18:52:22.888Z,24.83
2023-04-18T18:53:22.748Z,24.87
2023-04-18T18:54:22.757Z,24.89
2023-04-18T18:55:22.771Z,24.90
2023-04-18T18:56:22.757Z,24.96
2023-04-18T18:57:22.709Z,24.95
2023-04-18T18:58:22.727Z,24.96
2023-04-18T18:59:22.714Z,24.95
2023-04-18T19:00:22.723Z,24.99
2023-04-18T19:01:22.734Z,25.02
2023-04-18T19:02:22.940Z,24.97
2023-04-18T19:03:22.827Z,25.00
2023-04-18T19:04:22.809Z,25.03
2023-04-18T19:05:22.697Z,25.00
2023-04-18T19:06:22.704Z,25.02
2023-04-18T19:07:22.671Z,25.02
2023-04-18T19:08:22.673Z,25.03
2023-04-18T19:09:22.669Z,24.99
2023-04-18T19:10:22.713Z,25.00
2023-04-18T19:11:22.775Z,25.02
2023-04-18T19:12:22.827Z,24.99
2023-04-18T19:13:22.872Z,25.02
2023-04-18T19:14:22.955Z,25.03
2023-04-18T19:15:22.979Z,25.02
2023-04-18T19:16:23.061Z,25.02
2023-04-18T19:17:23.100Z,25.03
2023-04-18T19:18:23.558Z,25.00
2023-04-18T19:19:23.155Z,25.03
2023-04-18T19:20:23.236Z,25.03
2023-04-18T19:21:23.259Z,25.00
2023-04-18T19:22:23.360Z,24.99
2023-04-18T19:23:23.418Z,24.99
2023-04-18T19:24:23.448Z,24.99
2023-04-18T19:25:23.513Z,25.00
2023-04-18T19:26:23.583Z,24.99
2023-04-18T19:27:23.657Z,24.95
2023-04-18T19:28:23.735Z,24.99
2023-04-18T19:29:23.773Z,24.95
2023-04-18T19:30:23.834Z,24.95
2023-04-18T19:31:23.967Z,24.96
2023-04-18T19:32:24.040Z,24.93
2023-04-18T19:33:24.030Z,24.93
2023-04-18T19:34:24.077Z,24.92
2023-04-18T19:35:24.256Z,24.90
2023-04-18T19:36:24.250Z,24.87
2023-04-18T19:37:24.279Z,24.89
2023-04-18T19:38:24.299Z,24.86
2023-04-18T19:39:24.344Z,24.87
2023-04-18T19:40:24.498Z,24.86
2023-04-18T19:41:24.500Z,24.85
2023-04-18T19:42:24.545Z,24.83
2023-04-18T19:43:24.578Z,24.83
2023-04-18T19:44:24.652Z,24.83
2023-04-18T19:45:24.665Z,24.82
2023-04-18T19:46:24.793Z,24.83
2023-04-18T19:47:24.802Z,24.82
2023-04-18T19:48:24.872Z,24.81
2023-04-18T19:49:24.900Z,24.78
2023-04-18T19:50:24.968Z,24.81
2023-04-18T19:51:25.049Z,24.78
2023-04-18T19:52:25.065Z,24.79
2023-04-18T19:53:25.085Z,24.78
2023-04-18T19:54:25.148Z,24.78
2023-04-18T19:55:25.200Z,24.78
2023-04-18T19:56:25.215Z,24.78
2023-04-18T19:57:25.284Z,24.76
2023-04-18T19:58:25.329Z,24.78
2023-04-18T19:59:25.359Z,24.76
2023-04-18T20:00:25.370Z,24.75
2023-04-18T20:01:25.401Z,24.74
2023-04-18T20:02:25.491Z,24.74
2023-04-18T20:03:25.583Z,24.75
2023-04-18T20:04:25.678Z,24.75
2023-04-18T20:05:25.539Z,24.75
2023-04-18T20:06:25.535Z,24.75
2023-04-18T20:07:26.311Z,24.72
2023-04-18T20:08:25.655Z,24.75
2023-04-18T20:09:25.694Z,24.74
2023-04-18T20:10:25.749Z,24.72
2023-04-18T20:11:25.768Z,24.74
2023-04-18T20:12:25.824Z,24.75
2023-04-18T20:13:25.887Z,24.72
2023-04-18T20:14:25.895Z,24.74
2023-04-18T20:15:25.944Z,24.72
2023-04-18T20:16:25.969Z,24.76
2023-04-18T20:17:26.040Z,24.74
2023-04-18T20:18:26.004Z,24.72
2023-04-18T20:19:26.013Z,24.72
2023-04-18T20:20:26.048Z,24.74
2023-04-18T20:21:26.085Z,24.74
2023-04-18T20:22:26.080Z,24.71
2023-04-18T20:23:26.104Z,24.72
2023-04-18T20:24:26.095Z,24.71
2023-04-18T20:25:26.155Z,24.69
2023-04-18T20:26:26.158Z,24.69
2023-04-18T20:27:26.179Z,24.68
2023-04-18T20:28:26.222Z,24.68
2023-04-18T20:29:26.234Z,24.68
2023-04-18T20:30:26.302Z,24.66
2023-04-18T20:31:26.212Z,24.68
2023-04-18T20:32:26.238Z,24.68
2023-04-18T20:33:26.277Z,24.68
2023-04-18T20:34:26.239Z,24.68
2023-04-18T20:35:26.277Z,24.69
2023-04-18T20:36:26.240Z,24.68
2023-04-18T20:37:26.295Z,24.66
2023-04-18T20:38:26.401Z,24.66
2023-04-18T20:39:26.314Z,24.66
2023-04-18T20:40:26.310Z,24.66
2023-04-18T20:41:26.322Z,24.68
2023-04-18T20:42:26.336Z,24.65
2023-04-18T20:43:26.337Z,24.65
2023-04-18T20:44:26.375Z,24.65
2023-04-18T20:45:26.351Z,24.64
2023-04-18T20:46:26.377Z,24.64
2023-04-18T20:47:26.366Z,24.65
2023-04-18T20:48:26.318Z,24.64
2023-04-18T20:49:26.378Z,24.65
2023-04-18T20:50:26.303Z,24.65
2023-04-18T20:51:26.331Z,24.62
2023-04-18T20:52:26.327Z,24.64
2023-04-18T20:53:26.316Z,24.66
2023-04-18T20:54:26.627Z,24.62
2023-04-18T20:55:26.318Z,24.65
2023-04-18T20:56:26.311Z,24.62
2023-04-18T20:57:26.293Z,24.64
2023-04-18T20:58:26.298Z,24.62
2023-04-18T20:59:26.324Z,24.62
2023-04-18T21:00:26.288Z,24.64
2023-04-18T21:01:26.354Z,24.65
2023-04-18T21:02:26.462Z,24.61
2023-04-18T21:03:26.402Z,24.62
2023-04-18T21:04:26.405Z,24.61
2023-04-18T21:05:26.340Z,24.64
2023-04-18T21:06:26.346Z,24.65
2023-04-18T21:07:26.347Z,24.64
2023-04-18T21:08:26.344Z,24.62
2023-04-18T21:09:26.346Z,24.62
2023-04-18T21:10:26.385Z,24.62
2023-04-18T21:11:26.321Z,24.62
2023-04-18T21:12:26.319Z,24.64
2023-04-18T21:13:26.334Z,24.62
2023-04-18T21:14:26.618Z,24.64
2023-04-18T21:15:26.324Z,24.64
2023-04-18T21:16:26.333Z,24.61
2023-04-18T21:17:26.336Z,24.59
2023-04-18T21:18:26.325Z,24.61
2023-04-18T21:19:26.302Z,24.59
2023-04-18T21:20:26.320Z,24.61
2023-04-18T21:21:26.322Z,24.62
2023-04-18T21:22:26.300Z,24.62
2023-04-18T21:23:26.307Z,24.61
2023-04-18T21:24:26.320Z,24.61
2023-04-18T21:25:27.130Z,24.59
2023-04-18T21:26:26.308Z,24.59
2023-04-18T21:27:26.291Z,24.58
2023-04-18T21:28:26.294Z,24.57
2023-04-18T21:29:26.320Z,24.59
2023-04-18T21:30:26.669Z,24.58
2023-04-18T21:31:26.718Z,24.58
2023-04-18T21:32:26.424Z,24.59
2023-04-18T21:33:26.397Z,24.59
2023-04-18T21:34:26.408Z,24.61
2023-04-18T21:35:26.436Z,24.59
2023-04-18T21:36:26.526Z,24.59
2023-04-18T21:37:26.397Z,24.58
2023-04-18T21:38:26.436Z,24.57
2023-04-18T21:39:26.408Z,24.58
2023-04-18T21:40:26.392Z,24.59
2023-04-18T21:41:26.405Z,24.59
2023-04-18T21:42:26.378Z,24.58
2023-04-18T21:43:26.393Z,24.58
2023-04-18T21:44:26.371Z,24.58
2023-04-18T21:45:26.416Z,24.58
2023-04-18T21:46:26.585Z,24.55
2023-04-18T21:47:26.462Z,24.57
2023-04-18T21:48:26.375Z,24.55
2023-04-18T21:49:26.401Z,24.58
2023-04-18T21:50:26.401Z,24.58
2023-04-18T21:51:26.359Z,24.57
2023-04-18T21:52:26.371Z,24.57
2023-04-18T21:53:26.379Z,24.57
2023-04-18T21:54:26.423Z,24.58
2023-04-18T21:55:26.397Z,24.57
2023-04-18T21:56:26.404Z,24.55
2023-04-18T21:57:26.439Z,24.57
2023-04-18T21:58:26.423Z,24.55
2023-04-18T21:59:26.445Z,24.57
2023-04-18T22:00:26.419Z,24.55
2023-04-18T22:01:26.472Z,24.57
2023-04-18T22:02:26.561Z,24.57
2023-04-18T22:03:26.588Z,24.57
2023-04-18T22:04:26.768Z,24.55
2023-04-18T22:05:26.440Z,24.55
2023-04-18T22:06:26.500Z,24.58
2023-04-18T22:07:26.438Z,24.57
2023-04-18T22:08:26.454Z,24.57
2023-04-18T22:09:26.453Z,24.54
2023-04-18T22:10:26.421Z,24.57
2023-04-18T22:11:26.436Z,24.54
2023-04-18T22:12:26.531Z,24.57
2023-04-18T22:13:26.445Z,24.55
2023-04-18T22:14:26.462Z,24.55
2023-04-18T22:15:26.468Z,24.57
2023-04-18T22:16:26.452Z,24.54
2023-04-18T22:17:26.526Z,24.57
2023-04-18T22:18:26.452Z,24.55
2023-04-18T22:19:26.470Z,24.54
2023-04-18T22:20:26.456Z,24.54
2023-04-18T22:21:26.474Z,24.55
2023-04-18T22:22:26.466Z,24.57
2023-04-18T22:23:26.448Z,24.54
2023-04-18T22:24:26.501Z,24.55
2023-04-18T22:25:26.451Z,24.55
2023-04-18T22:26:26.433Z,24.55
2023-04-18T22:27:26.470Z,24.57
2023-04-18T22:28:26.454Z,24.55
2023-04-18T22:29:26.455Z,24.55
2023-04-18T22:30:26.456Z,24.57
2023-04-18T22:31:26.500Z,24.52
2023-04-18T22:32:26.531Z,24.54
2023-04-18T22:33:26.496Z,24.57
2023-04-18T22:34:26.477Z,24.55
2023-04-18T22:35:26.477Z,24.55
2023-04-18T22:36:26.490Z,24.54
2023-04-18T22:37:26.521Z,24.55
2023-04-18T22:38:26.464Z,24.54
2023-04-18T22:39:26.475Z,24.55
2023-04-18T22:40:26.496Z,24.54
2023-04-18T22:41:26.469Z,24.54
2023-04-18T22:42:26.494Z,24.54
2023-04-18T22:43:26.484Z,24.54
2023-04-18T22:44:26.514Z,24.55
2023-04-18T22:45:26.499Z,24.55
2023-04-18T22:46:26.540Z,24.54
2023-04-18T22:47:26.521Z,24.55
2023-04-18T22:48:26.461Z,24.54
2023-04-18T22:49:26.463Z,24.55
2023-04-18T22:50:26.520Z,24.54
2023-04-18T22:51:26.484Z,24.54
2023-04-18T22:52:26.521Z,24.55
2023-04-18T22:53:26.485Z,24.55
2023-04-18T22:54:26.490Z,24.55
2023-04-18T22:55:26.529Z,24.52
2023-04-18T22:56:26.513Z,24.54
2023-04-18T22:57:26.538Z,24.54
2023-04-18T22:58:26.507Z,24.54
2023-04-18T22:59:26.535Z,24.54
2023-04-18T23:00:26.511Z,24.54
2023-04-18T23:01:26.618Z,24.54
2023-04-18T23:02:26.646Z,24.55
2023-04-18T23:03:26.622Z,24.52
2023-04-18T23:04:26.695Z,24.52
2023-04-18T23:05:26.552Z,24.55
2023-04-18T23:06:26.550Z,24.52
2023-04-18T23:07:26.537Z,24.54
2023-04-18T23:08:26.625Z,24.54
2023-04-18T23:09:26.560Z,24.54
2023-04-18T23:10:26.585Z,24.55
2023-04-18T23:11:26.591Z,24.54
2023-04-18T23:12:26.559Z,24.51
2023-04-18T23:13:26.640Z,24.52